sensor_id;sensor_type;location;lat;lon;timestamp;P1;durP1;ratioP1;P2;durP2;ratioP2
67747;SDS011;54543;50.712;6.070;2023-05-23T00:00:53;29.33;;;16.63;;
67747;SDS011;54543;50.712;6.070;2023-05-23T00:03:19;27.25;;;15.25;;
67747;SDS011;54543;50.712;6.070;2023-05-23T00:05:47;27.05;;;15.77;;
67747;SDS011;54543;50.712;6.070;2023-05-23T00:08:13;24.80;;;15.27;;
67747;SDS011;54543;50.712;6.070;2023-05-23T00:10:38;26.50;;;16.30;;
67747;SDS011;54543;50.712;6.070;2023-05-23T00:13:04;25.52;;;15.07;;
67747;SDS011;54543;50.712;6.070;2023-05-23T00:15:33;25.65;;;15.15;;
67747;SDS011;54543;50.712;6.070;2023-05-23T00:18:01;23.92;;;14.35;;
67747;SDS011;54543;50.712;6.070;2023-05-23T00:20:27;26.88;;;15.90;;
67747;SDS011;54543;50.712;6.070;2023-05-23T00:22:54;26.20;;;15.05;;
67747;SDS011;54543;50.712;6.070;2023-05-23T00:25:25;27.73;;;15.95;;
67747;SDS011;54543;50.712;6.070;2023-05-23T00:27:58;28.08;;;15.23;;
67747;SDS011;54543;50.712;6.070;2023-05-23T00:30:25;25.08;;;13.93;;
67747;SDS011;54543;50.712;6.070;2023-05-23T00:32:59;24.00;;;14.40;;
67747;SDS011;54543;50.712;6.070;2023-05-23T00:35:25;24.92;;;14.55;;
67747;SDS011;54543;50.712;6.070;2023-05-23T00:37:51;25.13;;;15.05;;
67747;SDS011;54543;50.712;6.070;2023-05-23T00:40:18;26.02;;;16.02;;
67747;SDS011;54543;50.712;6.070;2023-05-23T00:42:43;26.27;;;15.85;;
67747;SDS011;54543;50.712;6.070;2023-05-23T00:45:09;23.50;;;14.13;;
67747;SDS011;54543;50.712;6.070;2023-05-23T00:47:37;24.63;;;14.52;;
67747;SDS011;54543;50.712;6.070;2023-05-23T00:50:07;26.10;;;15.73;;
67747;SDS011;54543;50.712;6.070;2023-05-23T00:52:35;26.80;;;15.35;;
67747;SDS011;54543;50.712;6.070;2023-05-23T00:55:01;21.67;;;13.40;;
67747;SDS011;54543;50.712;6.070;2023-05-23T00:57:27;18.42;;;11.90;;
67747;SDS011;54543;50.712;6.070;2023-05-23T00:59:52;20.35;;;12.18;;
67747;SDS011;54543;50.712;6.070;2023-05-23T01:02:18;19.85;;;12.43;;
67747;SDS011;54543;50.712;6.070;2023-05-23T01:04:46;19.63;;;11.65;;
67747;SDS011;54543;50.712;6.070;2023-05-23T01:07:18;18.35;;;11.25;;
67747;SDS011;54543;50.712;6.070;2023-05-23T01:09:44;19.08;;;11.95;;
67747;SDS011;54543;50.712;6.070;2023-05-23T01:12:16;18.40;;;13.13;;
67747;SDS011;54543;50.712;6.070;2023-05-23T01:14:48;18.02;;;11.95;;
67747;SDS011;54543;50.712;6.070;2023-05-23T01:17:25;16.60;;;10.23;;
67747;SDS011;54543;50.712;6.070;2023-05-23T01:19:58;16.10;;;11.13;;
67747;SDS011;54543;50.712;6.070;2023-05-23T01:25:49;17.27;;;10.70;;
67747;SDS011;54543;50.712;6.070;2023-05-23T01:28:24;14.77;;;9.02;;
67747;SDS011;54543;50.712;6.070;2023-05-23T01:30:52;19.50;;;11.23;;
67747;SDS011;54543;50.712;6.070;2023-05-23T01:33:22;17.27;;;11.60;;
67747;SDS011;54543;50.712;6.070;2023-05-23T01:35:49;14.35;;;9.48;;
67747;SDS011;54543;50.712;6.070;2023-05-23T01:38:15;16.90;;;11.05;;
67747;SDS011;54543;50.712;6.070;2023-05-23T01:40:41;19.27;;;12.68;;
67747;SDS011;54543;50.712;6.070;2023-05-23T01:43:07;20.58;;;12.65;;
67747;SDS011;54543;50.712;6.070;2023-05-23T01:45:32;17.27;;;11.70;;
67747;SDS011;54543;50.712;6.070;2023-05-23T01:47:59;17.15;;;11.65;;
67747;SDS011;54543;50.712;6.070;2023-05-23T01:50:26;19.50;;;12.90;;
67747;SDS011;54543;50.712;6.070;2023-05-23T01:52:52;16.50;;;11.15;;
67747;SDS011;54543;50.712;6.070;2023-05-23T01:55:20;17.45;;;12.40;;
67747;SDS011;54543;50.712;6.070;2023-05-23T01:57:51;16.17;;;10.10;;
67747;SDS011;54543;50.712;6.070;2023-05-23T02:00:20;13.57;;;9.60;;
67747;SDS011;54543;50.712;6.070;2023-05-23T02:02:46;14.00;;;9.23;;
67747;SDS011;54543;50.712;6.070;2023-05-23T02:05:11;16.95;;;11.43;;
67747;SDS011;54543;50.712;6.070;2023-05-23T02:07:37;16.58;;;11.35;;
67747;SDS011;54543;50.712;6.070;2023-05-23T02:10:03;15.68;;;10.07;;
67747;SDS011;54543;50.712;6.070;2023-05-23T02:12:30;14.27;;;10.10;;
67747;SDS011;54543;50.712;6.070;2023-05-23T02:14:55;16.17;;;11.32;;
67747;SDS011;54543;50.712;6.070;2023-05-23T02:17:21;15.90;;;9.88;;
67747;SDS011;54543;50.712;6.070;2023-05-23T02:19:48;16.00;;;10.48;;
67747;SDS011;54543;50.712;6.070;2023-05-23T02:22:14;13.40;;;9.38;;
67747;SDS011;54543;50.712;6.070;2023-05-23T02:24:39;13.50;;;9.95;;
67747;SDS011;54543;50.712;6.070;2023-05-23T02:27:05;15.38;;;9.75;;
67747;SDS011;54543;50.712;6.070;2023-05-23T02:29:31;22.08;;;13.20;;
67747;SDS011;54543;50.712;6.070;2023-05-23T02:31:56;15.35;;;10.00;;
67747;SDS011;54543;50.712;6.070;2023-05-23T02:34:22;14.18;;;9.98;;
67747;SDS011;54543;50.712;6.070;2023-05-23T02:36:47;16.88;;;10.27;;
67747;SDS011;54543;50.712;6.070;2023-05-23T02:39:13;14.57;;;9.80;;
67747;SDS011;54543;50.712;6.070;2023-05-23T02:41:39;13.80;;;8.82;;
67747;SDS011;54543;50.712;6.070;2023-05-23T02:44:04;14.85;;;8.52;;
67747;SDS011;54543;50.712;6.070;2023-05-23T02:46:30;11.90;;;8.20;;
67747;SDS011;54543;50.712;6.070;2023-05-23T02:48:56;9.38;;;6.75;;
67747;SDS011;54543;50.712;6.070;2023-05-23T02:51:21;8.82;;;6.03;;
67747;SDS011;54543;50.712;6.070;2023-05-23T02:53:47;10.38;;;6.97;;
67747;SDS011;54543;50.712;6.070;2023-05-23T02:56:13;9.60;;;7.20;;
67747;SDS011;54543;50.712;6.070;2023-05-23T02:58:39;11.02;;;7.25;;
67747;SDS011;54543;50.712;6.070;2023-05-23T03:01:05;9.85;;;6.90;;
67747;SDS011;54543;50.712;6.070;2023-05-23T03:03:32;9.27;;;6.82;;
67747;SDS011;54543;50.712;6.070;2023-05-23T03:05:58;11.57;;;8.15;;
67747;SDS011;54543;50.712;6.070;2023-05-23T03:08:24;9.18;;;6.13;;
67747;SDS011;54543;50.712;6.070;2023-05-23T03:10:49;9.38;;;6.55;;
67747;SDS011;54543;50.712;6.070;2023-05-23T03:13:15;11.57;;;7.55;;
67747;SDS011;54543;50.712;6.070;2023-05-23T03:15:41;13.38;;;7.07;;
67747;SDS011;54543;50.712;6.070;2023-05-23T03:18:07;10.75;;;6.80;;
67747;SDS011;54543;50.712;6.070;2023-05-23T03:20:32;9.00;;;5.63;;
67747;SDS011;54543;50.712;6.070;2023-05-23T03:22:58;9.43;;;7.18;;
67747;SDS011;54543;50.712;6.070;2023-05-23T03:25:24;8.98;;;6.63;;
67747;SDS011;54543;50.712;6.070;2023-05-23T03:27:50;8.95;;;5.95;;
67747;SDS011;54543;50.712;6.070;2023-05-23T03:30:16;8.60;;;5.78;;
67747;SDS011;54543;50.712;6.070;2023-05-23T03:32:41;11.20;;;7.55;;
67747;SDS011;54543;50.712;6.070;2023-05-23T03:35:07;10.10;;;7.20;;
67747;SDS011;54543;50.712;6.070;2023-05-23T03:37:33;10.38;;;6.40;;
67747;SDS011;54543;50.712;6.070;2023-05-23T03:39:59;12.57;;;7.43;;
67747;SDS011;54543;50.712;6.070;2023-05-23T03:42:24;9.45;;;6.15;;
67747;SDS011;54543;50.712;6.070;2023-05-23T03:44:50;10.80;;;6.88;;
67747;SDS011;54543;50.712;6.070;2023-05-23T03:47:15;9.57;;;6.35;;
67747;SDS011;54543;50.712;6.070;2023-05-23T03:49:41;8.98;;;6.65;;
67747;SDS011;54543;50.712;6.070;2023-05-23T03:52:07;10.55;;;6.28;;
67747;SDS011;54543;50.712;6.070;2023-05-23T03:54:32;10.27;;;6.95;;
67747;SDS011;54543;50.712;6.070;2023-05-23T03:56:58;8.07;;;5.50;;
67747;SDS011;54543;50.712;6.070;2023-05-23T03:59:23;11.88;;;7.25;;
67747;SDS011;54543;50.712;6.070;2023-05-23T04:01:49;9.70;;;5.85;;
67747;SDS011;54543;50.712;6.070;2023-05-23T04:04:15;12.43;;;7.38;;
67747;SDS011;54543;50.712;6.070;2023-05-23T04:06:41;11.25;;;7.28;;
67747;SDS011;54543;50.712;6.070;2023-05-23T04:09:07;12.63;;;9.00;;
67747;SDS011;54543;50.712;6.070;2023-05-23T04:11:33;10.52;;;6.65;;
67747;SDS011;54543;50.712;6.070;2023-05-23T04:13:58;12.88;;;8.13;;
67747;SDS011;54543;50.712;6.070;2023-05-23T04:16:24;12.85;;;7.93;;
67747;SDS011;54543;50.712;6.070;2023-05-23T04:18:49;10.40;;;8.15;;
67747;SDS011;54543;50.712;6.070;2023-05-23T04:21:15;12.25;;;8.10;;
67747;SDS011;54543;50.712;6.070;2023-05-23T04:23:41;11.27;;;7.85;;
67747;SDS011;54543;50.712;6.070;2023-05-23T04:26:07;9.07;;;6.43;;
67747;SDS011;54543;50.712;6.070;2023-05-23T04:28:34;8.80;;;6.15;;
67747;SDS011;54543;50.712;6.070;2023-05-23T04:31:00;8.50;;;5.85;;
67747;SDS011;54543;50.712;6.070;2023-05-23T04:33:28;9.82;;;6.47;;
67747;SDS011;54543;50.712;6.070;2023-05-23T04:35:54;10.00;;;6.05;;
67747;SDS011;54543;50.712;6.070;2023-05-23T04:38:20;8.75;;;5.88;;
67747;SDS011;54543;50.712;6.070;2023-05-23T04:40:47;8.40;;;5.65;;
67747;SDS011;54543;50.712;6.070;2023-05-23T04:43:13;9.27;;;7.07;;
67747;SDS011;54543;50.712;6.070;2023-05-23T04:45:40;11.15;;;7.10;;
67747;SDS011;54543;50.712;6.070;2023-05-23T04:48:06;11.40;;;7.57;;
67747;SDS011;54543;50.712;6.070;2023-05-23T04:50:32;8.55;;;6.13;;
67747;SDS011;54543;50.712;6.070;2023-05-23T04:52:59;12.25;;;7.20;;
67747;SDS011;54543;50.712;6.070;2023-05-23T04:55:25;9.25;;;5.85;;
67747;SDS011;54543;50.712;6.070;2023-05-23T04:57:51;10.27;;;6.50;;
67747;SDS011;54543;50.712;6.070;2023-05-23T05:00:16;11.75;;;6.07;;
67747;SDS011;54543;50.712;6.070;2023-05-23T05:02:42;11.02;;;7.05;;
67747;SDS011;54543;50.712;6.070;2023-05-23T05:05:08;10.23;;;6.35;;
67747;SDS011;54543;50.712;6.070;2023-05-23T05:07:34;8.93;;;5.97;;
67747;SDS011;54543;50.712;6.070;2023-05-23T05:10:00;10.50;;;6.82;;
67747;SDS011;54543;50.712;6.070;2023-05-23T05:12:26;10.73;;;6.25;;
67747;SDS011;54543;50.712;6.070;2023-05-23T05:14:52;10.20;;;7.22;;
67747;SDS011;54543;50.712;6.070;2023-05-23T05:17:18;9.32;;;6.07;;
67747;SDS011;54543;50.712;6.070;2023-05-23T05:19:46;11.05;;;7.07;;
67747;SDS011;54543;50.712;6.070;2023-05-23T05:22:11;11.05;;;6.72;;
67747;SDS011;54543;50.712;6.070;2023-05-23T05:24:37;11.02;;;6.53;;
67747;SDS011;54543;50.712;6.070;2023-05-23T05:27:04;10.27;;;6.35;;
67747;SDS011;54543;50.712;6.070;2023-05-23T05:29:30;9.02;;;5.80;;
67747;SDS011;54543;50.712;6.070;2023-05-23T05:31:57;9.20;;;6.07;;
67747;SDS011;54543;50.712;6.070;2023-05-23T05:34:25;16.08;;;8.13;;
67747;SDS011;54543;50.712;6.070;2023-05-23T05:36:52;10.55;;;6.82;;
67747;SDS011;54543;50.712;6.070;2023-05-23T05:39:21;10.52;;;6.75;;
67747;SDS011;54543;50.712;6.070;2023-05-23T05:41:48;10.98;;;6.45;;
67747;SDS011;54543;50.712;6.070;2023-05-23T05:44:14;11.45;;;7.05;;
67747;SDS011;54543;50.712;6.070;2023-05-23T05:46:39;11.60;;;7.95;;
67747;SDS011;54543;50.712;6.070;2023-05-23T05:49:05;11.77;;;6.75;;
67747;SDS011;54543;50.712;6.070;2023-05-23T05:51:31;10.40;;;6.72;;
67747;SDS011;54543;50.712;6.070;2023-05-23T05:53:56;11.85;;;7.22;;
67747;SDS011;54543;50.712;6.070;2023-05-23T05:56:22;13.93;;;7.65;;
67747;SDS011;54543;50.712;6.070;2023-05-23T05:58:47;10.88;;;6.82;;
67747;SDS011;54543;50.712;6.070;2023-05-23T06:01:13;10.85;;;6.50;;
67747;SDS011;54543;50.712;6.070;2023-05-23T06:03:39;10.40;;;6.25;;
67747;SDS011;54543;50.712;6.070;2023-05-23T06:06:05;9.65;;;6.93;;
67747;SDS011;54543;50.712;6.070;2023-05-23T06:08:33;12.48;;;6.93;;
67747;SDS011;54543;50.712;6.070;2023-05-23T06:10:58;9.57;;;5.85;;
67747;SDS011;54543;50.712;6.070;2023-05-23T06:13:24;10.52;;;6.32;;
67747;SDS011;54543;50.712;6.070;2023-05-23T06:15:49;11.23;;;6.45;;
67747;SDS011;54543;50.712;6.070;2023-05-23T06:18:15;11.05;;;6.95;;
67747;SDS011;54543;50.712;6.070;2023-05-23T06:20:40;9.15;;;6.00;;
67747;SDS011;54543;50.712;6.070;2023-05-23T06:23:06;12.05;;;6.65;;
67747;SDS011;54543;50.712;6.070;2023-05-23T06:25:33;9.02;;;6.28;;
67747;SDS011;54543;50.712;6.070;2023-05-23T06:27:58;8.95;;;5.82;;
67747;SDS011;54543;50.712;6.070;2023-05-23T06:30:24;9.43;;;5.93;;
67747;SDS011;54543;50.712;6.070;2023-05-23T06:32:50;8.55;;;5.97;;
67747;SDS011;54543;50.712;6.070;2023-05-23T06:35:16;8.88;;;5.88;;
67747;SDS011;54543;50.712;6.070;2023-05-23T06:37:42;8.73;;;5.50;;
67747;SDS011;54543;50.712;6.070;2023-05-23T06:40:10;8.05;;;5.13;;
67747;SDS011;54543;50.712;6.070;2023-05-23T06:42:39;9.13;;;6.30;;
67747;SDS011;54543;50.712;6.070;2023-05-23T06:45:05;8.15;;;4.90;;
67747;SDS011;54543;50.712;6.070;2023-05-23T06:47:31;6.57;;;4.53;;
67747;SDS011;54543;50.712;6.070;2023-05-23T06:49:56;8.32;;;5.53;;
67747;SDS011;54543;50.712;6.070;2023-05-23T06:52:22;8.18;;;4.82;;
67747;SDS011;54543;50.712;6.070;2023-05-23T06:54:48;6.60;;;4.57;;
67747;SDS011;54543;50.712;6.070;2023-05-23T06:57:13;6.20;;;4.15;;
67747;SDS011;54543;50.712;6.070;2023-05-23T06:59:39;9.15;;;6.53;;
67747;SDS011;54543;50.712;6.070;2023-05-23T07:02:05;8.25;;;5.38;;
67747;SDS011;54543;50.712;6.070;2023-05-23T07:04:30;6.10;;;4.25;;
67747;SDS011;54543;50.712;6.070;2023-05-23T07:06:56;7.05;;;5.05;;
67747;SDS011;54543;50.712;6.070;2023-05-23T07:09:21;7.95;;;5.13;;
67747;SDS011;54543;50.712;6.070;2023-05-23T07:11:47;6.03;;;4.10;;
67747;SDS011;54543;50.712;6.070;2023-05-23T07:14:13;7.68;;;4.82;;
67747;SDS011;54543;50.712;6.070;2023-05-23T07:16:39;8.85;;;5.45;;
67747;SDS011;54543;50.712;6.070;2023-05-23T07:19:05;8.13;;;5.45;;
67747;SDS011;54543;50.712;6.070;2023-05-23T07:21:31;7.57;;;4.97;;
67747;SDS011;54543;50.712;6.070;2023-05-23T07:23:56;5.80;;;3.95;;
67747;SDS011;54543;50.712;6.070;2023-05-23T07:26:22;5.75;;;4.15;;
67747;SDS011;54543;50.712;6.070;2023-05-23T07:28:47;8.10;;;4.93;;
67747;SDS011;54543;50.712;6.070;2023-05-23T07:31:14;6.15;;;4.20;;
67747;SDS011;54543;50.712;6.070;2023-05-23T07:33:40;6.82;;;4.63;;
67747;SDS011;54543;50.712;6.070;2023-05-23T07:36:05;6.95;;;4.70;;
67747;SDS011;54543;50.712;6.070;2023-05-23T07:38:31;7.07;;;4.22;;
67747;SDS011;54543;50.712;6.070;2023-05-23T07:40:57;6.03;;;4.28;;
67747;SDS011;54543;50.712;6.070;2023-05-23T07:43:22;8.35;;;4.97;;
67747;SDS011;54543;50.712;6.070;2023-05-23T07:45:48;7.43;;;4.13;;
67747;SDS011;54543;50.712;6.070;2023-05-23T07:48:14;6.20;;;4.38;;
67747;SDS011;54543;50.712;6.070;2023-05-23T07:50:39;6.20;;;4.18;;
67747;SDS011;54543;50.712;6.070;2023-05-23T07:53:05;6.80;;;4.05;;
67747;SDS011;54543;50.712;6.070;2023-05-23T07:55:30;6.25;;;4.25;;
67747;SDS011;54543;50.712;6.070;2023-05-23T07:57:56;6.38;;;3.63;;
67747;SDS011;54543;50.712;6.070;2023-05-23T08:00:22;8.43;;;4.65;;
67747;SDS011;54543;50.712;6.070;2023-05-23T08:02:47;7.38;;;4.40;;
67747;SDS011;54543;50.712;6.070;2023-05-23T08:05:14;7.93;;;4.30;;
67747;SDS011;54543;50.712;6.070;2023-05-23T08:07:39;6.53;;;4.55;;
67747;SDS011;54543;50.712;6.070;2023-05-23T08:10:05;5.85;;;4.00;;
67747;SDS011;54543;50.712;6.070;2023-05-23T08:12:31;6.18;;;3.60;;
67747;SDS011;54543;50.712;6.070;2023-05-23T08:14:57;5.43;;;3.83;;
67747;SDS011;54543;50.712;6.070;2023-05-23T08:17:23;6.15;;;4.13;;
67747;SDS011;54543;50.712;6.070;2023-05-23T08:19:49;7.82;;;4.03;;
67747;SDS011;54543;50.712;6.070;2023-05-23T08:22:14;7.82;;;4.20;;
67747;SDS011;54543;50.712;6.070;2023-05-23T08:24:40;8.18;;;4.68;;
67747;SDS011;54543;50.712;6.070;2023-05-23T08:27:05;5.38;;;3.83;;
67747;SDS011;54543;50.712;6.070;2023-05-23T08:29:32;6.63;;;4.30;;
67747;SDS011;54543;50.712;6.070;2023-05-23T08:31:59;10.32;;;5.28;;
67747;SDS011;54543;50.712;6.070;2023-05-23T08:34:24;8.45;;;5.00;;
67747;SDS011;54543;50.712;6.070;2023-05-23T08:36:50;7.07;;;4.40;;
67747;SDS011;54543;50.712;6.070;2023-05-23T08:39:16;6.68;;;4.43;;
67747;SDS011;54543;50.712;6.070;2023-05-23T08:41:42;6.95;;;4.63;;
67747;SDS011;54543;50.712;6.070;2023-05-23T08:44:08;7.60;;;4.28;;
67747;SDS011;54543;50.712;6.070;2023-05-23T08:46:37;16.88;;;4.47;;
67747;SDS011;54543;50.712;6.070;2023-05-23T08:49:08;9.05;;;5.60;;
67747;SDS011;54543;50.712;6.070;2023-05-23T08:51:34;7.03;;;4.60;;
67747;SDS011;54543;50.712;6.070;2023-05-23T08:54:03;8.32;;;5.05;;
67747;SDS011;54543;50.712;6.070;2023-05-23T08:56:30;7.00;;;4.90;;
67747;SDS011;54543;50.712;6.070;2023-05-23T08:58:56;6.85;;;4.88;;
67747;SDS011;54543;50.712;6.070;2023-05-23T09:01:22;5.55;;;3.78;;
67747;SDS011;54543;50.712;6.070;2023-05-23T09:03:49;8.38;;;4.80;;
67747;SDS011;54543;50.712;6.070;2023-05-23T09:06:15;10.15;;;4.70;;
67747;SDS011;54543;50.712;6.070;2023-05-23T09:08:42;6.72;;;4.68;;
67747;SDS011;54543;50.712;6.070;2023-05-23T09:11:10;8.00;;;4.38;;
67747;SDS011;54543;50.712;6.070;2023-05-23T09:13:37;9.63;;;4.82;;
67747;SDS011;54543;50.712;6.070;2023-05-23T09:16:05;10.93;;;6.72;;
67747;SDS011;54543;50.712;6.070;2023-05-23T09:21:03;10.10;;;5.93;;
67747;SDS011;54543;50.712;6.070;2023-05-23T09:23:32;10.75;;;5.53;;
67747;SDS011;54543;50.712;6.070;2023-05-23T09:26:05;15.68;;;7.97;;
67747;SDS011;54543;50.712;6.070;2023-05-23T09:28:32;12.85;;;5.38;;
67747;SDS011;54543;50.712;6.070;2023-05-23T09:31:02;13.88;;;7.15;;
67747;SDS011;54543;50.712;6.070;2023-05-23T09:33:33;11.65;;;6.32;;
67747;SDS011;54543;50.712;6.070;2023-05-23T09:36:02;8.25;;;5.25;;
67747;SDS011;54543;50.712;6.070;2023-05-23T09:38:28;8.65;;;5.63;;
67747;SDS011;54543;50.712;6.070;2023-05-23T09:40:54;7.45;;;4.22;;
67747;SDS011;54543;50.712;6.070;2023-05-23T09:43:22;9.07;;;4.90;;
67747;SDS011;54543;50.712;6.070;2023-05-23T09:45:47;6.97;;;4.47;;
67747;SDS011;54543;50.712;6.070;2023-05-23T09:48:13;8.15;;;4.53;;
67747;SDS011;54543;50.712;6.070;2023-05-23T09:50:39;9.20;;;4.88;;
67747;SDS011;54543;50.712;6.070;2023-05-23T09:53:05;7.93;;;4.78;;
67747;SDS011;54543;50.712;6.070;2023-05-23T09:55:31;8.10;;;4.85;;
67747;SDS011;54543;50.712;6.070;2023-05-23T09:57:57;7.55;;;5.03;;
67747;SDS011;54543;50.712;6.070;2023-05-23T10:00:24;7.40;;;4.90;;
67747;SDS011;54543;50.712;6.070;2023-05-23T10:05:45;8.88;;;5.20;;
67747;SDS011;54543;50.712;6.070;2023-05-23T10:08:17;8.68;;;5.07;;
67747;SDS011;54543;50.712;6.070;2023-05-23T10:13:21;7.82;;;4.50;;
67747;SDS011;54543;50.712;6.070;2023-05-23T10:15:50;7.47;;;4.47;;
67747;SDS011;54543;50.712;6.070;2023-05-23T10:18:38;8.95;;;4.22;;
67747;SDS011;54543;50.712;6.070;2023-05-23T10:21:14;7.18;;;4.05;;
67747;SDS011;54543;50.712;6.070;2023-05-23T10:23:48;7.50;;;4.45;;
67747;SDS011;54543;50.712;6.070;2023-05-23T10:26:15;5.50;;;3.63;;
67747;SDS011;54543;50.712;6.070;2023-05-23T10:28:42;6.75;;;3.90;;
67747;SDS011;54543;50.712;6.070;2023-05-23T10:31:09;6.18;;;3.70;;
67747;SDS011;54543;50.712;6.070;2023-05-23T10:33:39;6.75;;;3.58;;
67747;SDS011;54543;50.712;6.070;2023-05-23T10:36:09;6.78;;;3.70;;
67747;SDS011;54543;50.712;6.070;2023-05-23T10:38:44;8.48;;;4.65;;
67747;SDS011;54543;50.712;6.070;2023-05-23T10:41:24;7.78;;;4.03;;
67747;SDS011;54543;50.712;6.070;2023-05-23T10:44:06;6.10;;;4.28;;
67747;SDS011;54543;50.712;6.070;2023-05-23T10:46:53;8.10;;;3.67;;
67747;SDS011;54543;50.712;6.070;2023-05-23T10:49:19;6.45;;;4.05;;
67747;SDS011;54543;50.712;6.070;2023-05-23T10:51:49;6.07;;;3.92;;
67747;SDS011;54543;50.712;6.070;2023-05-23T10:54:17;6.45;;;3.53;;
67747;SDS011;54543;50.712;6.070;2023-05-23T10:56:47;6.22;;;4.07;;
67747;SDS011;54543;50.712;6.070;2023-05-23T10:59:27;6.78;;;3.83;;
67747;SDS011;54543;50.712;6.070;2023-05-23T11:01:53;7.72;;;4.63;;
67747;SDS011;54543;50.712;6.070;2023-05-23T11:04:26;5.25;;;3.28;;
67747;SDS011;54543;50.712;6.070;2023-05-23T11:06:53;7.78;;;3.63;;
67747;SDS011;54543;50.712;6.070;2023-05-23T11:09:20;5.88;;;3.88;;
67747;SDS011;54543;50.712;6.070;2023-05-23T11:16:58;6.25;;;3.58;;
67747;SDS011;54543;50.712;6.070;2023-05-23T11:19:26;4.55;;;3.30;;
67747;SDS011;54543;50.712;6.070;2023-05-23T11:21:53;5.90;;;3.75;;
67747;SDS011;54543;50.712;6.070;2023-05-23T11:24:27;8.55;;;4.15;;
67747;SDS011;54543;50.712;6.070;2023-05-23T11:27:14;9.07;;;5.10;;
67747;SDS011;54543;50.712;6.070;2023-05-23T11:29:39;8.90;;;4.70;;
67747;SDS011;54543;50.712;6.070;2023-05-23T11:32:09;6.88;;;4.90;;
67747;SDS011;54543;50.712;6.070;2023-05-23T11:34:38;9.82;;;4.65;;
67747;SDS011;54543;50.712;6.070;2023-05-23T11:37:04;9.32;;;4.97;;
67747;SDS011;54543;50.712;6.070;2023-05-23T11:39:29;10.57;;;4.60;;
67747;SDS011;54543;50.712;6.070;2023-05-23T11:42:02;9.70;;;4.32;;
67747;SDS011;54543;50.712;6.070;2023-05-23T11:44:28;6.40;;;4.10;;
67747;SDS011;54543;50.712;6.070;2023-05-23T11:47:06;8.82;;;4.05;;
67747;SDS011;54543;50.712;6.070;2023-05-23T11:49:35;5.88;;;3.88;;
67747;SDS011;54543;50.712;6.070;2023-05-23T11:52:03;5.55;;;3.55;;
67747;SDS011;54543;50.712;6.070;2023-05-23T11:54:30;5.65;;;3.40;;
67747;SDS011;54543;50.712;6.070;2023-05-23T11:56:56;6.13;;;3.83;;
67747;SDS011;54543;50.712;6.070;2023-05-23T11:59:23;7.95;;;3.92;;
67747;SDS011;54543;50.712;6.070;2023-05-23T12:01:50;7.90;;;3.78;;
67747;SDS011;54543;50.712;6.070;2023-05-23T12:04:16;6.07;;;3.80;;
67747;SDS011;54543;50.712;6.070;2023-05-23T12:06:44;5.07;;;3.50;;
67747;SDS011;54543;50.712;6.070;2023-05-23T12:09:12;4.80;;;3.15;;
67747;SDS011;54543;50.712;6.070;2023-05-23T12:11:39;6.13;;;3.20;;
67747;SDS011;54543;50.712;6.070;2023-05-23T12:14:06;5.03;;;3.30;;
67747;SDS011;54543;50.712;6.070;2023-05-23T12:16:33;8.18;;;4.03;;
67747;SDS011;54543;50.712;6.070;2023-05-23T12:19:00;4.80;;;3.10;;
67747;SDS011;54543;50.712;6.070;2023-05-23T12:21:39;4.90;;;3.08;;
67747;SDS011;54543;50.712;6.070;2023-05-23T12:24:12;6.68;;;3.15;;
67747;SDS011;54543;50.712;6.070;2023-05-23T12:26:55;5.05;;;3.13;;
67747;SDS011;54543;50.712;6.070;2023-05-23T12:29:32;6.05;;;3.20;;
67747;SDS011;54543;50.712;6.070;2023-05-23T12:32:00;5.32;;;3.33;;
67747;SDS011;54543;50.712;6.070;2023-05-23T12:34:26;5.32;;;3.17;;
67747;SDS011;54543;50.712;6.070;2023-05-23T12:36:56;5.50;;;3.22;;
67747;SDS011;54543;50.712;6.070;2023-05-23T12:39:23;5.10;;;3.17;;
67747;SDS011;54543;50.712;6.070;2023-05-23T12:41:51;6.00;;;3.05;;
67747;SDS011;54543;50.712;6.070;2023-05-23T12:44:16;4.60;;;2.95;;
67747;SDS011;54543;50.712;6.070;2023-05-23T12:46:42;6.28;;;3.17;;
67747;SDS011;54543;50.712;6.070;2023-05-23T12:49:08;5.55;;;3.03;;
67747;SDS011;54543;50.712;6.070;2023-05-23T12:51:33;6.30;;;2.90;;
67747;SDS011;54543;50.712;6.070;2023-05-23T12:53:59;4.68;;;2.75;;
67747;SDS011;54543;50.712;6.070;2023-05-23T12:56:26;6.18;;;3.00;;
67747;SDS011;54543;50.712;6.070;2023-05-23T12:58:51;5.05;;;2.60;;
67747;SDS011;54543;50.712;6.070;2023-05-23T13:01:18;3.95;;;2.47;;
67747;SDS011;54543;50.712;6.070;2023-05-23T13:03:44;6.63;;;2.45;;
67747;SDS011;54543;50.712;6.070;2023-05-23T13:06:10;4.65;;;2.33;;
67747;SDS011;54543;50.712;6.070;2023-05-23T13:08:36;5.30;;;2.60;;
67747;SDS011;54543;50.712;6.070;2023-05-23T13:11:02;4.07;;;2.70;;
67747;SDS011;54543;50.712;6.070;2023-05-23T13:13:29;5.45;;;3.10;;
67747;SDS011;54543;50.712;6.070;2023-05-23T13:15:56;4.10;;;2.30;;
67747;SDS011;54543;50.712;6.070;2023-05-23T13:18:22;4.97;;;2.33;;
67747;SDS011;54543;50.712;6.070;2023-05-23T13:20:48;6.00;;;2.90;;
67747;SDS011;54543;50.712;6.070;2023-05-23T13:23:13;5.72;;;2.35;;
67747;SDS011;54543;50.712;6.070;2023-05-23T13:25:39;7.72;;;3.35;;
67747;SDS011;54543;50.712;6.070;2023-05-23T13:28:05;6.03;;;2.40;;
67747;SDS011;54543;50.712;6.070;2023-05-23T13:30:31;4.80;;;2.33;;
67747;SDS011;54543;50.712;6.070;2023-05-23T13:32:56;6.45;;;2.40;;
67747;SDS011;54543;50.712;6.070;2023-05-23T13:35:22;5.32;;;2.60;;
67747;SDS011;54543;50.712;6.070;2023-05-23T13:37:48;4.90;;;2.40;;
67747;SDS011;54543;50.712;6.070;2023-05-23T13:40:17;6.60;;;2.40;;
67747;SDS011;54543;50.712;6.070;2023-05-23T13:42:44;5.32;;;2.55;;
67747;SDS011;54543;50.712;6.070;2023-05-23T13:45:11;5.65;;;2.10;;
67747;SDS011;54543;50.712;6.070;2023-05-23T13:47:37;5.07;;;2.45;;
67747;SDS011;54543;50.712;6.070;2023-05-23T13:50:03;5.45;;;2.33;;
67747;SDS011;54543;50.712;6.070;2023-05-23T13:52:29;8.40;;;2.50;;
67747;SDS011;54543;50.712;6.070;2023-05-23T13:54:55;5.43;;;2.40;;
67747;SDS011;54543;50.712;6.070;2023-05-23T13:57:21;5.50;;;2.22;;
67747;SDS011;54543;50.712;6.070;2023-05-23T13:59:46;4.03;;;2.38;;
67747;SDS011;54543;50.712;6.070;2023-05-23T14:02:12;5.68;;;2.40;;
67747;SDS011;54543;50.712;6.070;2023-05-23T14:04:37;4.93;;;2.50;;
67747;SDS011;54543;50.712;6.070;2023-05-23T14:07:03;4.72;;;2.15;;
67747;SDS011;54543;50.712;6.070;2023-05-23T14:09:29;5.20;;;2.28;;
67747;SDS011;54543;50.712;6.070;2023-05-23T14:11:54;5.45;;;1.95;;
67747;SDS011;54543;50.712;6.070;2023-05-23T14:14:20;7.22;;;2.33;;
67747;SDS011;54543;50.712;6.070;2023-05-23T14:16:45;4.95;;;2.40;;
67747;SDS011;54543;50.712;6.070;2023-05-23T14:19:11;3.70;;;2.10;;
67747;SDS011;54543;50.712;6.070;2023-05-23T14:21:37;5.43;;;2.25;;
67747;SDS011;54543;50.712;6.070;2023-05-23T14:24:02;3.95;;;2.15;;
67747;SDS011;54543;50.712;6.070;2023-05-23T14:26:28;5.22;;;2.40;;
67747;SDS011;54543;50.712;6.070;2023-05-23T14:28:54;5.30;;;2.30;;
67747;SDS011;54543;50.712;6.070;2023-05-23T14:31:19;8.73;;;2.78;;
67747;SDS011;54543;50.712;6.070;2023-05-23T14:33:46;6.18;;;2.20;;
67747;SDS011;54543;50.712;6.070;2023-05-23T14:36:12;4.35;;;2.40;;
67747;SDS011;54543;50.712;6.070;2023-05-23T14:38:37;5.45;;;2.22;;
67747;SDS011;54543;50.712;6.070;2023-05-23T14:41:03;6.80;;;2.50;;
67747;SDS011;54543;50.712;6.070;2023-05-23T14:43:29;2.88;;;1.75;;
67747;SDS011;54543;50.712;6.070;2023-05-23T14:45:55;4.93;;;2.45;;
67747;SDS011;54543;50.712;6.070;2023-05-23T14:48:20;4.90;;;1.95;;
67747;SDS011;54543;50.712;6.070;2023-05-23T14:50:47;5.28;;;2.05;;
67747;SDS011;54543;50.712;6.070;2023-05-23T14:53:13;5.22;;;2.50;;
67747;SDS011;54543;50.712;6.070;2023-05-23T14:55:38;6.05;;;2.03;;